Time;durP1;ratioP1;P1;durP2;ratioP2;P2;SDS_P1;SDS_P2;PMS_P1;PMS_P2;Temp;Humidity;BMP_temperature;BMP_pressure;BME280_temperature;BME280_humidity;BME280_pressure;Samples;Min_cycle;Max_cycle;Signal;HPM_P1;HPM_P2
2022/03/10 00:02:20;;;;;;;16.05;8.65;;;;;;;;;;5055742;28;20040;-70
2022/03/10 00:04:45;;;;;;;16.08;8.45;;;;;;;;;;5056658;28;20008;-70
2022/03/10 00:07:10;;;;;;;18.02;10.05;;;;;;;;;;5066763;28;20031;-70
2022/03/10 00:09:35;;;;;;;22.73;9.43;;;;;;;;;;5063543;28;20032;-70
2022/03/10 00:12:00;;;;;;;19.80;8.73;;;;;;;;;;5058759;28;20538;-70
2022/03/10 00:14:26;;;;;;;19.67;8.75;;;;;;;;;;5063627;28;20029;-70
2022/03/10 00:16:51;;;;;;;17.05;10.10;;;;;;;;;;5058988;28;20166;-70
2022/03/10 00:19:16;;;;;;;16.27;8.75;;;;;;;;;;5065365;28;20476;-70
2022/03/10 00:21:45;;;;;;;22.58;10.05;;;;;;;;;;5065172;28;20702;-70
2022/03/10 00:24:10;;;;;;;19.90;10.07;;;;;;;;;;5048232;28;20025;-70
2022/03/10 00:26:37;;;;;;;22.95;11.30;;;;;;;;;;5064793;28;20123;-70
2022/03/10 00:29:02;;;;;;;22.33;10.18;;;;;;;;;;5066941;28;20029;-70
2022/03/10 00:31:27;;;;;;;21.85;9.95;;;;;;;;;;5064544;28;20113;-71
2022/03/10 00:33:52;;;;;;;22.25;9.90;;;;;;;;;;5057824;28;20442;-70
2022/03/10 00:36:18;;;;;;;23.83;11.05;;;;;;;;;;5060924;28;20044;-70
2022/03/10 00:38:43;;;;;;;24.50;10.68;;;;;;;;;;5063747;28;20484;-70
2022/03/10 00:41:09;;;;;;;27.13;11.02;;;;;;;;;;5060275;28;20097;-70
2022/03/10 00:43:34;;;;;;;30.42;11.80;;;;;;;;;;5059986;28;20059;-70
2022/03/10 00:45:59;;;;;;;26.90;12.85;;;;;;;;;;5061563;28;20052;-73
2022/03/10 00:48:25;;;;;;;31.15;13.05;;;;;;;;;;5060610;28;20024;-72
2022/03/10 00:50:50;;;;;;;26.50;12.23;;;;;;;;;;5056613;28;20454;-71
2022/03/10 00:53:15;;;;;;;27.73;12.75;;;;;;;;;;5063340;28;20120;-71
2022/03/10 00:55:40;;;;;;;28.10;13.50;;;;;;;;;;5047471;28;20044;-71
2022/03/10 00:58:06;;;;;;;33.65;14.50;;;;;;;;;;5061851;28;20050;-71
2022/03/10 01:00:31;;;;;;;25.85;12.68;;;;;;;;;;5047546;28;20636;-71
2022/03/10 01:02:56;;;;;;;29.70;14.00;;;;;;;;;;5062299;28;20040;-72
2022/03/10 01:05:21;;;;;;;27.55;12.95;;;;;;;;;;5075063;28;20077;-70
2022/03/10 01:07:47;;;;;;;29.42;13.48;;;;;;;;;;5064055;28;20028;-71
2022/03/10 01:10:12;;;;;;;25.23;12.95;;;;;;;;;;5065270;28;20460;-70
2022/03/10 01:12:41;;;;;;;28.10;13.10;;;;;;;;;;5061840;28;20804;-70
2022/03/10 01:15:07;;;;;;;26.52;13.27;;;;;;;;;;5062228;28;20028;-70
2022/03/10 01:17:32;;;;;;;29.13;14.30;;;;;;;;;;5061152;28;20024;-70
2022/03/10 01:22:25;;;;;;;27.42;13.60;;;;;;;;;;5064127;28;20131;-70
2022/03/10 01:24:50;;;;;;;28.35;12.70;;;;;;;;;;5060702;28;20150;-70
2022/03/10 01:27:15;;;;;;;26.60;12.73;;;;;;;;;;5066821;28;20024;-70
2022/03/10 01:29:40;;;;;;;29.25;11.85;;;;;;;;;;5066482;28;20158;-70
2022/03/10 01:32:05;;;;;;;25.48;11.80;;;;;;;;;;5066907;28;20412;-70
2022/03/10 01:34:31;;;;;;;24.23;11.95;;;;;;;;;;5066198;28;20020;-70
2022/03/10 01:36:56;;;;;;;27.90;11.73;;;;;;;;;;5066593;28;20117;-70
2022/03/10 01:39:21;;;;;;;27.08;11.85;;;;;;;;;;5067410;28;20028;-70
2022/03/10 01:41:46;;;;;;;23.52;12.15;;;;;;;;;;5061907;28;20074;-70
2022/03/10 01:44:12;;;;;;;22.35;11.07;;;;;;;;;;5066655;28;20115;-70
2022/03/10 01:46:37;;;;;;;26.58;12.00;;;;;;;;;;5060474;28;20021;-70
2022/03/10 01:49:03;;;;;;;24.33;11.13;;;;;;;;;;5067133;28;20082;-70
2022/03/10 01:51:28;;;;;;;29.42;12.02;;;;;;;;;;5066581;28;20415;-70
2022/03/10 01:53:53;;;;;;;20.33;11.48;;;;;;;;;;5066289;28;20440;-70
2022/03/10 01:56:18;;;;;;;25.63;12.68;;;;;;;;;;5065317;28;20039;-70
2022/03/10 01:58:47;;;;;;;22.67;11.52;;;;;;;;;;5066928;28;20529;-70
2022/03/10 02:01:12;;;;;;;26.40;12.50;;;;;;;;;;5055451;28;20040;-70
2022/03/10 02:03:38;;;;;;;26.98;12.32;;;;;;;;;;5044422;28;20013;-70
2022/03/10 02:06:03;;;;;;;25.70;13.60;;;;;;;;;;5040936;28;20020;-70
2022/03/10 02:11:12;;;;;;;26.35;12.32;;;;;;;;;;5040093;28;20028;-70
2022/03/10 02:13:38;;;;;;;32.13;14.05;;;;;;;;;;5043418;28;20017;-70
2022/03/10 02:18:47;;;;;;;26.90;13.77;;;;;;;;;;5044345;28;20032;-70
2022/03/10 02:21:12;;;;;;;28.50;13.00;;;;;;;;;;5043533;28;20017;-70
2022/03/10 02:23:37;;;;;;;31.23;13.50;;;;;;;;;;5042135;28;20028;-70
2022/03/10 02:26:03;;;;;;;26.73;12.77;;;;;;;;;;5040098;28;20373;-70
2022/03/10 02:28:28;;;;;;;31.30;14.20;;;;;;;;;;5038967;28;20029;-70
2022/03/10 02:30:53;;;;;;;34.53;14.48;;;;;;;;;;5042142;28;20037;-69
2022/03/10 02:33:19;;;;;;;25.58;13.13;;;;;;;;;;5043523;28;20244;-69
2022/03/10 02:35:44;;;;;;;40.70;15.25;;;;;;;;;;5041984;28;20533;-70
2022/03/10 02:38:15;;;;;;;30.55;14.38;;;;;;;;;;5042784;28;20056;-70
2022/03/10 02:40:41;;;;;;;31.60;14.95;;;;;;;;;;5041609;28;20438;-70
2022/03/10 02:43:06;;;;;;;30.08;13.80;;;;;;;;;;5041459;28;20037;-69
2022/03/10 02:45:31;;;;;;;35.67;15.55;;;;;;;;;;5042189;28;20108;-70
2022/03/10 02:47:56;;;;;;;31.63;14.25;;;;;;;;;;5042121;28;20063;-69
2022/03/10 02:50:22;;;;;;;32.40;14.52;;;;;;;;;;5040967;28;20060;-70
2022/03/10 02:52:47;;;;;;;25.33;13.20;;;;;;;;;;5039803;28;20033;-69
2022/03/10 02:55:12;;;;;;;31.67;15.05;;;;;;;;;;5047709;28;20037;-70
2022/03/10 02:57:37;;;;;;;36.63;15.50;;;;;;;;;;5044268;28;20033;-69
2022/03/10 03:00:03;;;;;;;28.77;13.07;;;;;;;;;;5047208;28;20032;-70
2022/03/10 03:02:28;;;;;;;30.05;13.43;;;;;;;;;;5046072;28;20128;-70
2022/03/10 03:04:54;;;;;;;34.70;13.77;;;;;;;;;;5045690;28;20062;-69
2022/03/10 03:07:19;;;;;;;24.70;12.27;;;;;;;;;;5044149;28;20033;-70
2022/03/10 03:09:44;;;;;;;23.23;12.15;;;;;;;;;;5045582;28;20028;-69
2022/03/10 03:12:09;;;;;;;27.42;13.35;;;;;;;;;;5046208;28;20580;-69
2022/03/10 03:14:34;;;;;;;27.73;12.77;;;;;;;;;;5046853;28;20060;-69
2022/03/10 03:17:00;;;;;;;25.23;12.93;;;;;;;;;;5046668;28;20112;-69
2022/03/10 03:19:25;;;;;;;29.70;13.55;;;;;;;;;;5045093;28;20484;-69
2022/03/10 03:21:53;;;;;;;27.95;13.05;;;;;;;;;;5061156;28;20029;-69
2022/03/10 03:24:18;;;;;;;30.17;12.60;;;;;;;;;;5044476;28;20111;-70
2022/03/10 03:26:44;;;;;;;27.80;12.60;;;;;;;;;;5047171;28;20126;-70
2022/03/10 03:29:09;;;;;;;27.42;13.82;;;;;;;;;;5043237;28;20036;-69
2022/03/10 03:31:34;;;;;;;26.15;13.80;;;;;;;;;;5057082;28;20042;-70
2022/03/10 03:33:59;;;;;;;24.38;12.95;;;;;;;;;;5062588;28;20032;-69
2022/03/10 03:36:25;;;;;;;36.10;13.43;;;;;;;;;;5065165;28;20085;-70
2022/03/10 03:38:50;;;;;;;26.27;12.13;;;;;;;;;;5063472;28;20522;-69
2022/03/10 03:41:15;;;;;;;25.20;11.75;;;;;;;;;;5065565;28;20016;-69
2022/03/10 03:43:40;;;;;;;26.60;11.65;;;;;;;;;;5061156;28;20028;-70
2022/03/10 03:46:06;;;;;;;21.08;10.82;;;;;;;;;;5064207;28;20085;-70
2022/03/10 03:48:31;;;;;;;21.17;11.05;;;;;;;;;;5066113;28;20025;-70
2022/03/10 03:50:56;;;;;;;21.25;11.07;;;;;;;;;;5062910;28;20035;-69
2022/03/10 03:53:21;;;;;;;24.75;12.55;;;;;;;;;;5064864;28;20078;-68
2022/03/10 03:55:46;;;;;;;29.58;13.38;;;;;;;;;;5068619;28;20380;-69
2022/03/10 03:58:12;;;;;;;28.23;13.45;;;;;;;;;;5069508;28;20494;-69
2022/03/10 04:00:37;;;;;;;27.92;13.32;;;;;;;;;;5058131;28;20044;-70
2022/03/10 04:03:09;;;;;;;28.38;13.85;;;;;;;;;;5043683;28;20100;-70
2022/03/10 04:05:34;;;;;;;29.55;14.23;;;;;;;;;;5040741;28;20032;-69
2022/03/10 04:07:59;;;;;;;30.60;13.65;;;;;;;;;;5046678;28;20440;-69
2022/03/10 04:10:25;;;;;;;28.50;12.85;;;;;;;;;;5043760;28;20512;-69
2022/03/10 04:12:50;;;;;;;27.50;14.15;;;;;;;;;;5047307;28;20029;-69
2022/03/10 04:15:15;;;;;;;31.98;14.15;;;;;;;;;;5046534;28;20063;-69
2022/03/10 04:17:40;;;;;;;31.55;13.93;;;;;;;;;;5045428;28;20028;-69
2022/03/10 04:20:08;;;;;;;30.83;14.27;;;;;;;;;;5032278;28;20017;-68
2022/03/10 04:22:33;;;;;;;33.50;14.18;;;;;;;;;;5045291;28;20016;-68
2022/03/10 04:24:58;;;;;;;30.50;13.30;;;;;;;;;;5045486;28;20495;-68
2022/03/10 04:27:23;;;;;;;27.48;13.20;;;;;;;;;;5043489;28;20036;-68
2022/03/10 04:29:49;;;;;;;26.33;11.80;;;;;;;;;;5045017;28;20075;-68
2022/03/10 04:32:14;;;;;;;26.45;12.57;;;;;;;;;;5043161;28;20408;-68
2022/03/10 04:34:39;;;;;;;28.52;13.40;;;;;;;;;;5040853;28;20026;-68
2022/03/10 04:37:04;;;;;;;24.75;13.02;;;;;;;;;;5044603;28;20036;-70
2022/03/10 04:39:29;;;;;;;23.08;11.45;;;;;;;;;;5043636;28;20151;-69
2022/03/10 04:41:54;;;;;;;24.80;11.20;;;;;;;;;;5041855;28;20036;-69
2022/03/10 04:44:20;;;;;;;22.95;10.95;;;;;;;;;;5044208;28;20044;-69
2022/03/10 04:46:45;;;;;;;25.55;12.02;;;;;;;;;;5043675;28;20024;-69
2022/03/10 04:49:10;;;;;;;27.98;12.52;;;;;;;;;;5039998;28;20025;-69
2022/03/10 04:51:36;;;;;;;24.80;11.50;;;;;;;;;;5044107;28;20453;-69
2022/03/10 04:54:01;;;;;;;22.92;11.07;;;;;;;;;;5042853;28;20074;-71
2022/03/10 04:56:26;;;;;;;25.42;12.05;;;;;;;;;;5040756;28;20067;-70
2022/03/10 04:58:51;;;;;;;24.23;12.02;;;;;;;;;;5044182;28;20032;-69
2022/03/10 05:01:16;;;;;;;26.00;12.10;;;;;;;;;;5042579;28;20128;-69
2022/03/10 05:03:41;;;;;;;26.27;11.02;;;;;;;;;;5043208;28;20455;-69
2022/03/10 05:06:07;;;;;;;26.30;10.98;;;;;;;;;;5043853;28;20024;-69
2022/03/10 05:08:33;;;;;;;28.90;13.13;;;;;;;;;;5048151;28;20029;-70
2022/03/10 05:10:58;;;;;;;21.58;11.68;;;;;;;;;;5043694;28;20039;-69
2022/03/10 05:13:23;;;;;;;26.90;12.68;;;;;;;;;;5041933;28;20037;-70
2022/03/10 05:15:48;;;;;;;27.52;13.63;;;;;;;;;;5041326;28;20039;-69
2022/03/10 05:18:14;;;;;;;31.83;13.40;;;;;;;;;;5044581;28;20100;-69
2022/03/10 05:20:39;;;;;;;27.42;13.30;;;;;;;;;;5008339;28;1056768;-69
2022/03/10 05:23:04;;;;;;;26.83;13.45;;;;;;;;;;5043549;28;20025;-69
2022/03/10 05:25:36;;;;;;;24.30;11.93;;;;;;;;;;5042262;28;20037;-69
2022/03/10 05:28:02;;;;;;;27.20;12.07;;;;;;;;;;5044444;28;20029;-70
2022/03/10 05:30:27;;;;;;;23.42;11.75;;;;;;;;;;5042679;28;20041;-70
2022/03/10 05:32:52;;;;;;;23.92;11.45;;;;;;;;;;5046126;28;20035;-70
2022/03/10 05:35:17;;;;;;;27.95;13.05;;;;;;;;;;5046389;28;20017;-70
2022/03/10 05:37:43;;;;;;;25.38;12.30;;;;;;;;;;5046443;28;20495;-70
2022/03/10 05:40:09;;;;;;;26.17;12.23;;;;;;;;;;5046760;28;20025;-70
2022/03/10 05:42:37;;;;;;;24.58;12.00;;;;;;;;;;5042390;28;20138;-70
2022/03/10 05:45:02;;;;;;;26.40;12.50;;;;;;;;;;5045991;28;20016;-70
2022/03/10 05:47:27;;;;;;;31.33;12.85;;;;;;;;;;5047796;28;20082;-70
2022/03/10 05:49:52;;;;;;;29.02;12.70;;;;;;;;;;5043684;28;20048;-70
2022/03/10 05:52:18;;;;;;;25.77;12.45;;;;;;;;;;5046957;28;20392;-70
2022/03/10 05:54:43;;;;;;;28.48;13.02;;;;;;;;;;5041065;28;20036;-70
2022/03/10 05:57:08;;;;;;;27.88;12.80;;;;;;;;;;5046285;28;20013;-70
2022/03/10 05:59:33;;;;;;;37.28;14.90;;;;;;;;;;5042516;28;20066;-70
2022/03/10 06:01:58;;;;;;;34.80;14.40;;;;;;;;;;5044911;28;20045;-70
2022/03/10 06:04:24;;;;;;;32.72;14.75;;;;;;;;;;5045051;28;20040;-70
2022/03/10 06:06:49;;;;;;;37.22;13.93;;;;;;;;;;5041387;28;20040;-71
2022/03/10 06:09:14;;;;;;;29.20;14.25;;;;;;;;;;5043928;28;20032;-70
2022/03/10 06:11:39;;;;;;;25.98;13.50;;;;;;;;;;5043100;28;20139;-70
2022/03/10 06:14:04;;;;;;;28.88;14.10;;;;;;;;;;5045038;28;20082;-70
2022/03/10 06:16:30;;;;;;;32.13;13.38;;;;;;;;;;5046312;28;20422;-70
2022/03/10 06:18:55;;;;;;;27.23;11.95;;;;;;;;;;5044664;28;20063;-70
2022/03/10 06:21:21;;;;;;;25.23;12.48;;;;;;;;;;5046267;28;20032;-70
2022/03/10 06:23:46;;;;;;;28.08;12.55;;;;;;;;;;5040217;28;20021;-70
2022/03/10 06:26:12;;;;;;;28.40;11.98;;;;;;;;;;5043397;28;20025;-70
2022/03/10 06:28:37;;;;;;;26.27;12.00;;;;;;;;;;5043225;28;20098;-70
2022/03/10 06:31:03;;;;;;;24.60;13.07;;;;;;;;;;5044647;28;20579;-70
2022/03/10 06:33:28;;;;;;;27.15;12.23;;;;;;;;;;5046654;28;20013;-70
2022/03/10 06:35:54;;;;;;;26.60;12.73;;;;;;;;;;5027138;28;20072;-70
2022/03/10 06:38:19;;;;;;;28.42;11.27;;;;;;;;;;5046792;28;20033;-70
2022/03/10 06:40:44;;;;;;;27.65;12.88;;;;;;;;;;5044744;28;20040;-70
2022/03/10 06:43:09;;;;;;;26.27;12.57;;;;;;;;;;5045208;28;20043;-70
2022/03/10 06:45:34;;;;;;;30.05;13.18;;;;;;;;;;5044830;28;20029;-70
2022/03/10 06:48:00;;;;;;;28.13;13.88;;;;;;;;;;5045142;28;20056;-70
2022/03/10 06:50:25;;;;;;;25.27;12.10;;;;;;;;;;5046467;28;20056;-70
2022/03/10 06:52:52;;;;;;;25.80;11.95;;;;;;;;;;5045204;28;20036;-70
2022/03/10 06:55:19;;;;;;;22.67;11.73;;;;;;;;;;5043709;28;20052;-70
2022/03/10 06:57:45;;;;;;;23.88;12.13;;;;;;;;;;5046962;28;20025;-70
2022/03/10 07:00:10;;;;;;;20.17;10.45;;;;;;;;;;5045951;28;20059;-70
2022/03/10 07:02:35;;;;;;;22.33;11.15;;;;;;;;;;5045047;28;20025;-70
2022/03/10 07:05:01;;;;;;;24.13;12.02;;;;;;;;;;5046864;28;20071;-70
2022/03/10 07:07:26;;;;;;;23.33;10.85;;;;;;;;;;5045525;28;20558;-70
2022/03/10 07:09:51;;;;;;;23.70;11.85;;;;;;;;;;5045398;28;20388;-70
2022/03/10 07:12:17;;;;;;;28.70;11.63;;;;;;;;;;5045144;28;20025;-70
2022/03/10 07:14:42;;;;;;;22.65;11.75;;;;;;;;;;5045897;28;20021;-70
2022/03/10 07:17:07;;;;;;;22.38;11.77;;;;;;;;;;5045585;28;20032;-70
2022/03/10 07:19:32;;;;;;;25.02;11.75;;;;;;;;;;5044971;28;20036;-70
2022/03/10 07:21:57;;;;;;;20.92;10.82;;;;;;;;;;5045471;28;20097;-70
2022/03/10 07:24:25;;;;;;;20.33;10.55;;;;;;;;;;5042402;28;20538;-69
2022/03/10 07:26:50;;;;;;;23.55;11.57;;;;;;;;;;5043911;28;20112;-69
2022/03/10 07:29:16;;;;;;;24.15;10.90;;;;;;;;;;5049170;28;20131;-70
2022/03/10 07:31:41;;;;;;;21.63;11.23;;;;;;;;;;5048465;28;20040;-69
2022/03/10 07:34:06;;;;;;;26.35;9.63;;;;;;;;;;5049965;28;20033;-70
2022/03/10 07:36:32;;;;;;;16.30;7.97;;;;;;;;;;5049678;28;20499;-70
2022/03/10 07:38:57;;;;;;;12.95;7.25;;;;;;;;;;5049482;28;20477;-70
2022/03/10 07:41:22;;;;;;;14.30;6.63;;;;;;;;;;5049270;28;20078;-70
2022/03/10 07:43:48;;;;;;;13.68;6.78;;;;;;;;;;5049098;28;20033;-70
2022/03/10 07:46:13;;;;;;;11.63;6.68;;;;;;;;;;5049356;28;20033;-70
2022/03/10 07:48:38;;;;;;;12.70;6.28;;;;;;;;;;5048439;28;20009;-70
2022/03/10 07:51:03;;;;;;;13.65;6.82;;;;;;;;;;5048518;28;20112;-70
2022/03/10 07:53:29;;;;;;;10.38;5.57;;;;;;;;;;5045150;28;20382;-70
2022/03/10 07:55:57;;;;;;;9.57;5.70;;;;;;;;;;5048497;28;20036;-70
2022/03/10 07:58:23;;;;;;;11.48;6.10;;;;;;;;;;5048629;28;21268;-70
2022/03/10 08:00:48;;;;;;;12.55;6.13;;;;;;;;;;5052226;28;21402;-70
2022/03/10 08:03:14;;;;;;;11.40;6.20;;;;;;;;;;5062733;28;20025;-70
2022/03/10 08:05:39;;;;;;;9.32;5.30;;;;;;;;;;5059695;28;20099;-70
2022/03/10 08:08:04;;;;;;;10.48;5.35;;;;;;;;;;5065126;28;20013;-70
2022/03/10 08:10:30;;;;;;;9.07;5.18;;;;;;;;;;5065867;28;20527;-70
2022/03/10 08:12:55;;;;;;;11.10;5.30;;;;;;;;;;5065618;28;20107;-70
2022/03/10 08:15:21;;;;;;;12.85;5.72;;;;;;;;;;5054214;28;20039;-70
2022/03/10 08:17:47;;;;;;;11.57;5.65;;;;;;;;;;5064743;28;20024;-70
2022/03/10 08:20:12;;;;;;;11.32;5.93;;;;;;;;;;5065284;28;20392;-69
2022/03/10 08:22:37;;;;;;;12.02;5.65;;;;;;;;;;5059665;28;20034;-70
2022/03/10 08:25:02;;;;;;;9.75;5.45;;;;;;;;;;5063534;28;20020;-70
2022/03/10 08:27:28;;;;;;;12.32;5.15;;;;;;;;;;5065204;28;20098;-70
2022/03/10 08:29:53;;;;;;;9.93;5.60;;;;;;;;;;5064010;28;20369;-70
2022/03/10 08:32:19;;;;;;;11.85;5.43;;;;;;;;;;5067864;28;20033;-70
2022/03/10 08:34:44;;;;;;;9.55;5.88;;;;;;;;;;5068444;28;20082;-70
2022/03/10 08:37:09;;;;;;;10.35;5.43;;;;;;;;;;5068733;28;20036;-70
2022/03/10 08:39:35;;;;;;;10.38;5.07;;;;;;;;;;5067312;28;20887;-70
2022/03/10 08:42:01;;;;;;;8.35;4.90;;;;;;;;;;5068666;28;20112;-70
2022/03/10 08:44:26;;;;;;;12.20;5.90;;;;;;;;;;5068595;28;20094;-70
2022/03/10 08:46:51;;;;;;;11.68;6.18;;;;;;;;;;5068053;28;20038;-70
2022/03/10 08:49:17;;;;;;;10.77;5.63;;;;;;;;;;5066277;28;20024;-70
2022/03/10 08:51:42;;;;;;;12.63;6.38;;;;;;;;;;5065040;28;20024;-70
2022/03/10 08:54:08;;;;;;;11.10;5.72;;;;;;;;;;5062862;28;20094;-71
2022/03/10 08:56:34;;;;;;;9.55;5.40;;;;;;;;;;5065387;28;20032;-70
2022/03/10 08:58:59;;;;;;;9.93;5.80;;;;;;;;;;5065992;28;20754;-70
2022/03/10 09:01:24;;;;;;;10.32;6.03;;;;;;;;;;5055705;28;20045;-70
2022/03/10 09:03:49;;;;;;;10.82;5.72;;;;;;;;;;5046599;28;20029;-70
2022/03/10 09:06:16;;;;;;;12.70;6.20;;;;;;;;;;5046719;28;20481;-70
2022/03/10 09:08:42;;;;;;;11.18;5.65;;;;;;;;;;5047971;28;20056;-70
2022/03/10 09:11:07;;;;;;;10.45;5.50;;;;;;;;;;5048416;28;20111;-70
2022/03/10 09:13:32;;;;;;;8.70;4.97;;;;;;;;;;5046190;28;20152;-70
2022/03/10 09:15:58;;;;;;;10.48;5.97;;;;;;;;;;5046570;28;20408;-70
2022/03/10 09:18:23;;;;;;;9.65;5.22;;;;;;;;;;5046780;28;20112;-70
2022/03/10 09:20:48;;;;;;;10.50;5.30;;;;;;;;;;5044914;28;20258;-70
2022/03/10 09:23:13;;;;;;;9.38;5.38;;;;;;;;;;5046250;28;20027;-70
2022/03/10 09:25:39;;;;;;;10.82;5.40;;;;;;;;;;5044300;28;20032;-70
2022/03/10 09:28:04;;;;;;;8.45;5.30;;;;;;;;;;5047515;28;20025;-70
2022/03/10 09:30:29;;;;;;;8.35;4.78;;;;;;;;;;5047148;28;20576;-70
2022/03/10 09:32:57;;;;;;;8.40;5.07;;;;;;;;;;5041817;28;20036;-70
2022/03/10 09:35:22;;;;;;;8.38;5.38;;;;;;;;;;5047338;28;20035;-70
2022/03/10 09:37:48;;;;;;;8.02;4.82;;;;;;;;;;5044034;28;20025;-70
2022/03/10 09:40:13;;;;;;;9.05;5.22;;;;;;;;;;5039810;28;20039;-70
2022/03/10 09:42:38;;;;;;;8.52;5.50;;;;;;;;;;5045347;28;20033;-70
2022/03/10 09:45:05;;;;;;;8.75;5.18;;;;;;;;;;5044564;28;20036;-70
2022/03/10 09:47:30;;;;;;;12.55;5.00;;;;;;;;;;5041994;28;20028;-70
2022/03/10 09:49:55;;;;;;;9.23;5.38;;;;;;;;;;5043269;28;20389;-69
2022/03/10 09:52:21;;;;;;;9.68;5.20;;;;;;;;;;5040853;28;20106;-69
2022/03/10 09:54:46;;;;;;;10.07;5.22;;;;;;;;;;5044147;28;20045;-70
2022/03/10 09:57:13;;;;;;;9.40;5.25;;;;;;;;;;5043380;28;20021;-69
2022/03/10 09:59:51;;;;;;;9.05;4.90;;;;;;;;;;5042369;28;20024;-69
2022/03/10 10:02:17;;;;;;;10.45;5.55;;;;;;;;;;5042129;28;20029;-70
2022/03/10 10:04:43;;;;;;;10.43;4.85;;;;;;;;;;5038172;28;20020;-69
2022/03/10 10:07:10;;;;;;;8.18;5.20;;;;;;;;;;5042873;28;20035;-69
2022/03/10 10:09:39;;;;;;;8.23;5.05;;;;;;;;;;5042843;28;20021;-69
2022/03/10 10:12:05;;;;;;;9.52;5.13;;;;;;;;;;5041851;28;20173;-72
2022/03/10 10:14:38;;;;;;;6.97;4.50;;;;;;;;;;5040365;28;20036;-72
2022/03/10 10:17:04;;;;;;;13.93;5.20;;;;;;;;;;5043219;28;20431;-69
2022/03/10 10:19:31;;;;;;;8.05;4.82;;;;;;;;;;5041965;28;20293;-69
2022/03/10 10:22:16;;;;;;;6.43;4.18;;;;;;;;;;5042304;28;20045;-69
2022/03/10 10:24:41;;;;;;;;;;;;;;;;;;5041807;28;20017;-69
2022/03/10 10:27:13;;;;;;;6.83;4.13;;;;;;;;;;5042871;28;19965;-71
2022/03/10 10:29:52;;;;;;;5.00;3.88;;;;;;;;;;5038134;28;20285;-70
2022/03/10 10:32:46;;;;;;;6.60;4.05;;;;;;;;;;5044240;28;20102;-69
2022/03/10 10:35:12;;;;;;;9.25;4.35;;;;;;;;;;5040402;28;20060;-70
2022/03/10 10:37:38;;;;;;;8.27;4.30;;;;;;;;;;5044301;28;20028;-69
2022/03/10 10:40:04;;;;;;;6.25;4.05;;;;;;;;;;5059949;28;20486;-71
2022/03/10 10:42:33;;;;;;;5.95;4.38;;;;;;;;;;5045526;28;20032;-71
2022/03/10 10:45:01;;;;;;;5.40;3.63;;;;;;;;;;5045922;28;20009;-71
2022/03/10 10:47:29;;;;;;;7.05;3.78;;;;;;;;;;5044683;28;20055;-70
2022/03/10 10:50:05;;;;;;;8.05;4.10;;;;;;;;;;5042955;28;20484;-70
2022/03/10 10:52:37;;;;;;;9.05;4.18;;;;;;;;;;5043040;28;20032;-70
2022/03/10 10:55:05;;;;;;;7.63;4.18;;;;;;;;;;5044832;28;20118;-70
2022/03/10 10:57:33;;;;;;;6.05;3.60;;;;;;;;;;5045419;28;20059;-69
2022/03/10 11:00:07;;;;;;;6.65;3.55;;;;;;;;;;5044095;28;20021;-70
2022/03/10 11:02:34;;;;;;;7.53;4.43;;;;;;;;;;5060282;28;20044;-70
2022/03/10 11:04:59;;;;;;;8.07;4.22;;;;;;;;;;5060024;28;20021;-69
2022/03/10 11:07:24;;;;;;;5.03;3.90;;;;;;;;;;5060962;28;20031;-70
2022/03/10 11:09:50;;;;;;;5.32;3.88;;;;;;;;;;5065962;28;20028;-70
2022/03/10 11:12:16;;;;;;;5.13;3.63;;;;;;;;;;5059350;28;20074;-69
2022/03/10 11:14:41;;;;;;;6.43;4.00;;;;;;;;;;5061000;28;20035;-71
2022/03/10 11:17:07;;;;;;;4.75;3.65;;;;;;;;;;5065615;28;20020;-69
2022/03/10 11:19:33;;;;;;;8.82;4.30;;;;;;;;;;5060240;28;20571;-71
2022/03/10 11:22:11;;;;;;;6.13;3.72;;;;;;;;;;5065120;28;20112;-71
2022/03/10 11:24:42;;;;;;;5.38;3.70;;;;;;;;;;5059842;28;20029;-71
2022/03/10 11:27:12;;;;;;;9.02;3.67;;;;;;;;;;5064949;28;20024;-70
2022/03/10 11:29:37;;;;;;;5.10;3.35;;;;;;;;;;5059914;28;20027;-71
2022/03/10 11:32:06;;;;;;;13.15;4.25;;;;;;;;;;5064678;28;20033;-69
2022/03/10 11:34:46;;;;;;;6.15;3.97;;;;;;;;;;5060620;28;20511;-71
2022/03/10 11:37:12;;;;;;;6.43;3.72;;;;;;;;;;5065325;28;20092;-70
2022/03/10 11:40:07;;;;;;;5.88;3.97;;;;;;;;;;5065563;28;20024;-70
2022/03/10 11:42:32;;;;;;;3.47;3.17;;;;;;;;;;5055534;28;20123;-70
2022/03/10 11:45:24;;;;;;;4.28;3.28;;;;;;;;;;5064996;28;20123;-70
2022/03/10 11:47:49;;;;;;;5.20;4.00;;;;;;;;;;5063690;28;20492;-70
2022/03/10 11:50:21;;;;;;;5.30;3.63;;;;;;;;;;5064897;28;20028;-69
2022/03/10 11:52:55;;;;;;;4.88;3.50;;;;;;;;;;5065033;28;20503;-70
2022/03/10 11:55:21;;;;;;;5.25;3.45;;;;;;;;;;5064679;28;20032;-70
2022/03/10 11:57:52;;;;;;;3.47;3.13;;;;;;;;;;5046877;28;20104;-70
2022/03/10 12:00:17;;;;;;;3.95;2.88;;;;;;;;;;5062068;28;20032;-70
2022/03/10 12:02:46;;;;;;;4.28;3.10;;;;;;;;;;5042269;28;20096;-70
2022/03/10 12:05:11;;;;;;;3.42;2.70;;;;;;;;;;5039398;28;20485;-70
2022/03/10 12:07:39;;;;;;;4.40;2.65;;;;;;;;;;5040783;28;20032;-69
2022/03/10 12:10:08;;;;;;;3.70;2.92;;;;;;;;;;5042588;28;20508;-69
2022/03/10 12:12:38;;;;;;;6.18;2.83;;;;;;;;;;5041140;28;20109;-70
2022/03/10 12:15:21;;;;;;;4.35;3.00;;;;;;;;;;5039337;28;20025;-70
2022/03/10 12:17:52;;;;;;;4.00;2.92;;;;;;;;;;5045152;28;20032;-70
2022/03/10 12:20:36;;;;;;;5.20;3.13;;;;;;;;;;5044774;28;20074;-69
2022/03/10 12:23:09;;;;;;;3.30;2.30;;;;;;;;;;5043397;28;20025;-70
2022/03/10 12:25:46;;;;;;;5.45;2.90;;;;;;;;;;5043736;28;20025;-70
2022/03/10 12:28:34;;;;;;;4.35;3.08;;;;;;;;;;5040770;28;20024;-70
2022/03/10 12:31:10;;;;;;;3.58;2.88;;;;;;;;;;5044589;28;20095;-70
2022/03/10 12:33:52;;;;;;;4.90;3.03;;;;;;;;;;5040789;28;20028;-70
2022/03/10 12:36:28;;;;;;;6.50;3.78;;;;;;;;;;5038209;28;20037;-70
2022/03/10 12:38:54;;;;;;;4.22;3.00;;;;;;;;;;5023663;28;20041;-69
2022/03/10 12:41:19;;;;;;;4.47;2.92;;;;;;;;;;5046398;28;20106;-70
2022/03/10 12:43:52;;;;;;;4.05;3.00;;;;;;;;;;5041384;28;20028;-70
2022/03/10 12:46:18;;;;;;;5.80;3.17;;;;;;;;;;5025733;28;20657;-70
2022/03/10 12:49:11;;;;;;;5.55;3.22;;;;;;;;;;5046626;28;20035;-70
2022/03/10 12:51:37;;;;;;;5.18;3.30;;;;;;;;;;5042500;28;20032;-70
2022/03/10 12:54:04;;;;;;;3.92;3.20;;;;;;;;;;5044606;28;20427;-70
2022/03/10 12:56:43;;;;;;;5.57;3.45;;;;;;;;;;5043254;28;20024;-70
2022/03/10 12:59:09;;;;;;;6.00;4.05;;;;;;;;;;5040337;28;20136;-70
2022/03/10 13:01:34;;;;;;;8.43;3.70;;;;;;;;;;5037558;28;20564;-70
2022/03/10 13:03:59;;;;;;;5.82;3.40;;;;;;;;;;5041927;28;20582;-70
2022/03/10 13:06:26;;;;;;;6.45;3.42;;;;;;;;;;5046149;28;20033;-70
2022/03/10 13:08:58;;;;;;;4.65;3.45;;;;;;;;;;5041166;28;20039;-70
2022/03/10 13:11:36;;;;;;;4.55;3.55;;;;;;;;;;5041946;28;20086;-70
2022/03/10 13:14:07;;;;;;;5.78;3.97;;;;;;;;;;5025041;28;20512;-70
2022/03/10 13:16:33;;;;;;;5.18;3.83;;;;;;;;;;5042240;28;20032;-70
2022/03/10 13:18:58;;;;;;;5.80;4.00;;;;;;;;;;5042573;28;20024;-70
2022/03/10 13:21:24;;;;;;;5.28;3.60;;;;;;;;;;5041551;28;20029;-70
2022/03/10 13:23:49;;;;;;;5.18;3.70;;;;;;;;;;5044486;28;20104;-70
2022/03/10 13:26:14;;;;;;;6.03;3.60;;;;;;;;;;5043337;28;20017;-70
2022/03/10 13:28:40;;;;;;;3.28;2.97;;;;;;;;;;5033570;28;20033;-70
2022/03/10 13:31:06;;;;;;;4.53;3.65;;;;;;;;;;5039329;28;20082;-70
2022/03/10 13:33:31;;;;;;;7.13;3.70;;;;;;;;;;5044403;28;20032;-70
2022/03/10 13:35:57;;;;;;;3.70;3.30;;;;;;;;;;5042377;28;20041;-70
2022/03/10 13:38:24;;;;;;;7.80;3.60;;;;;;;;;;5040403;28;20033;-70
2022/03/10 13:40:51;;;;;;;3.60;3.30;;;;;;;;;;5026449;28;20041;-70
2022/03/10 13:43:24;;;;;;;3.80;3.50;;;;;;;;;;5026262;28;20134;-71
2022/03/10 13:45:49;;;;;;;4.18;3.72;;;;;;;;;;5036542;28;20483;-71
2022/03/10 13:48:21;;;;;;;4.35;3.67;;;;;;;;;;5043783;28;20025;-70
2022/03/10 13:50:46;;;;;;;4.78;3.47;;;;;;;;;;5044827;28;20040;-70
2022/03/10 13:53:12;;;;;;;4.40;3.83;;;;;;;;;;5044446;28;20033;-70
2022/03/10 13:55:44;;;;;;;5.80;3.67;;;;;;;;;;5046621;28;20043;-70
2022/03/10 13:58:10;;;;;;;4.97;3.80;;;;;;;;;;5046693;28;20127;-70
2022/03/10 14:00:45;;;;;;;4.18;3.78;;;;;;;;;;5040314;28;20037;-70
2022/03/10 14:03:21;;;;;;;4.95;4.45;;;;;;;;;;5039993;28;20496;-70
2022/03/10 14:05:47;;;;;;;6.07;4.85;;;;;;;;;;5046441;28;20025;-70
2022/03/10 14:08:14;;;;;;;6.45;4.25;;;;;;;;;;5045449;28;20600;-70
2022/03/10 14:10:40;;;;;;;5.45;4.35;;;;;;;;;;5044268;28;20033;-69
2022/03/10 14:13:06;;;;;;;4.63;4.22;;;;;;;;;;5041997;28;20028;-70
2022/03/10 14:15:40;;;;;;;8.38;4.10;;;;;;;;;;5044750;28;20021;-70
2022/03/10 14:18:13;;;;;;;5.30;4.40;;;;;;;;;;5046061;28;20508;-70
2022/03/10 14:20:49;;;;;;;6.07;4.50;;;;;;;;;;5044340;28;20090;-69
2022/03/10 14:23:16;;;;;;;6.47;4.63;;;;;;;;;;5023652;28;20053;-69
2022/03/10 14:25:48;;;;;;;4.85;4.35;;;;;;;;;;5044397;28;20017;-69
2022/03/10 14:28:14;;;;;;;5.68;4.40;;;;;;;;;;5044821;28;20035;-69
2022/03/10 14:30:39;;;;;;;5.47;4.55;;;;;;;;;;5042613;28;20488;-70
2022/03/10 14:33:06;;;;;;;6.32;4.70;;;;;;;;;;5042729;28;20043;-69
2022/03/10 14:35:32;;;;;;;5.40;4.35;;;;;;;;;;5044992;28;20032;-70